Terminal Aerodrome Forecast
Issued by NWS Cleveland, OH

Home | Current Version | Previous Version | Text Only | Print | Product List | Glossary Off
Versions: 1 2 3 4 5 6 7 8 9 10 11 12 13 14 15 16 17 18 19 20 21 22 23 24 25 26 27 28 29 30

000
FTUS41 KCLE 240300 AAA
TAFCLE
TAF AMD
KCLE 240343Z 2404/2506 14020G32KT 6SM -SHRA SCT020 OVC040
     FM240530 14020G32KT 6SM -SHRA SCT012 OVC030
      TEMPO 2406/2408 4SM -SHRA OVC012
     FM240800 18022G32KT P6SM VCSH SCT012 OVC030
     FM241800 22028G42KT P6SM OVC030
      TEMPO 2418/2420 3SM -SHRA
     FM250000 24025G35KT P6SM VCSH OVC030=

USA.gov is the U.S. government's official web portal to all federal, state and local government web resources and services.